sensor_id;sensor_type;location;lat;lon;timestamp;pressure;altitude;pressure_sealevel;temperature;humidity
61488;BME280;47351;53.326;-6.298;2023-01-28T00:01:15;103017.27;;;3.56;78.03
61488;BME280;47351;53.326;-6.298;2023-01-28T00:04:05;103016.94;;;3.60;78.02
61488;BME280;47351;53.326;-6.298;2023-01-28T00:06:56;103026.26;;;3.66;78.01
61488;BME280;47351;53.326;-6.298;2023-01-28T00:09:46;103030.92;;;3.74;77.96
61488;BME280;47351;53.326;-6.298;2023-01-28T00:12:37;103032.10;;;3.80;77.85
61488;BME280;47351;53.326;-6.298;2023-01-28T00:15:27;103026.95;;;3.86;77.73
61488;BME280;47351;53.326;-6.298;2023-01-28T00:18:18;103023.40;;;3.91;77.61
61488;BME280;47351;53.326;-6.298;2023-01-28T00:21:10;103018.85;;;3.94;77.49
61488;BME280;47351;53.326;-6.298;2023-01-28T00:24:21;103010.66;;;3.95;77.30
61488;BME280;47351;53.326;-6.298;2023-01-28T00:27:11;103011.70;;;3.96;77.21
61488;BME280;47351;53.326;-6.298;2023-01-28T00:30:02;103003.04;;;3.96;77.21
61488;BME280;47351;53.326;-6.298;2023-01-28T00:32:53;103001.95;;;3.97;77.16
61488;BME280;47351;53.326;-6.298;2023-01-28T00:35:44;103006.54;;;3.97;77.14
61488;BME280;47351;53.326;-6.298;2023-01-28T00:38:37;103005.36;;;3.96;77.32
61488;BME280;47351;53.326;-6.298;2023-01-28T00:41:27;103007.52;;;3.95;77.37
61488;BME280;47351;53.326;-6.298;2023-01-28T00:44:19;103018.92;;;3.97;77.43
61488;BME280;47351;53.326;-6.298;2023-01-28T00:47:10;103026.83;;;3.98;77.36
61488;BME280;47351;53.326;-6.298;2023-01-28T00:50:01;103022.00;;;3.99;77.33
61488;BME280;47351;53.326;-6.298;2023-01-28T00:52:52;103020.42;;;3.99;77.24
61488;BME280;47351;53.326;-6.298;2023-01-28T00:55:43;103015.86;;;3.99;77.27
61488;BME280;47351;53.326;-6.298;2023-01-28T00:58:34;103004.76;;;3.98;77.38
61488;BME280;47351;53.326;-6.298;2023-01-28T01:01:27;102988.88;;;3.97;77.46
61488;BME280;47351;53.326;-6.298;2023-01-28T01:04:18;102984.17;;;3.95;77.59
61488;BME280;47351;53.326;-6.298;2023-01-28T01:07:15;102985.96;;;3.94;77.75
61488;BME280;47351;53.326;-6.298;2023-01-28T01:10:08;102985.45;;;3.94;77.90
61488;BME280;47351;53.326;-6.298;2023-01-28T01:12:59;102983.33;;;3.94;78.06
61488;BME280;47351;53.326;-6.298;2023-01-28T01:15:50;102978.98;;;3.97;78.23
61488;BME280;47351;53.326;-6.298;2023-01-28T01:18:50;102972.86;;;4.00;78.38
61488;BME280;47351;53.326;-6.298;2023-01-28T01:21:41;102965.21;;;4.01;78.37
61488;BME280;47351;53.326;-6.298;2023-01-28T01:24:34;102963.05;;;4.02;78.46
61488;BME280;47351;53.326;-6.298;2023-01-28T01:27:24;102964.98;;;4.03;78.56
61488;BME280;47351;53.326;-6.298;2023-01-28T01:30:14;102964.95;;;4.03;78.66
61488;BME280;47351;53.326;-6.298;2023-01-28T01:33:05;102964.27;;;4.07;78.82
61488;BME280;47351;53.326;-6.298;2023-01-28T01:35:56;102963.03;;;4.11;78.83
61488;BME280;47351;53.326;-6.298;2023-01-28T01:38:47;102958.85;;;4.14;78.77
61488;BME280;47351;53.326;-6.298;2023-01-28T01:41:41;102955.93;;;4.16;78.79
61488;BME280;47351;53.326;-6.298;2023-01-28T01:44:53;102957.55;;;4.16;78.73
61488;BME280;47351;53.326;-6.298;2023-01-28T01:47:45;102955.61;;;4.12;78.92
61488;BME280;47351;53.326;-6.298;2023-01-28T01:50:38;102958.56;;;4.08;79.05
61488;BME280;47351;53.326;-6.298;2023-01-28T01:53:29;102960.95;;;4.06;79.18
61488;BME280;47351;53.326;-6.298;2023-01-28T01:56:21;102963.29;;;4.05;79.33
61488;BME280;47351;53.326;-6.298;2023-01-28T01:59:14;102963.52;;;4.03;79.45
61488;BME280;47351;53.326;-6.298;2023-01-28T02:02:07;102961.23;;;4.03;79.61
61488;BME280;47351;53.326;-6.298;2023-01-28T02:04:59;102960.88;;;4.04;79.81
61488;BME280;47351;53.326;-6.298;2023-01-28T02:07:50;102964.55;;;4.05;80.01
61488;BME280;47351;53.326;-6.298;2023-01-28T02:10:43;102967.38;;;4.04;80.17
61488;BME280;47351;53.326;-6.298;2023-01-28T02:13:35;102975.35;;;4.04;80.42
61488;BME280;47351;53.326;-6.298;2023-01-28T02:16:28;102989.17;;;4.03;80.64
61488;BME280;47351;53.326;-6.298;2023-01-28T02:19:20;102993.31;;;4.01;80.82
61488;BME280;47351;53.326;-6.298;2023-01-28T02:22:20;102992.13;;;4.00;81.02
61488;BME280;47351;53.326;-6.298;2023-01-28T02:28:25;102992.20;;;3.98;81.56
61488;BME280;47351;53.326;-6.298;2023-01-28T02:31:22;102992.37;;;3.98;81.89
61488;BME280;47351;53.326;-6.298;2023-01-28T02:34:16;102996.95;;;3.98;82.19
61488;BME280;47351;53.326;-6.298;2023-01-28T02:37:08;102998.13;;;4.00;82.63
61488;BME280;47351;53.326;-6.298;2023-01-28T02:40:03;103004.42;;;4.02;82.99
61488;BME280;47351;53.326;-6.298;2023-01-28T02:42:55;103013.91;;;4.03;83.30
61488;BME280;47351;53.326;-6.298;2023-01-28T02:45:46;103016.67;;;4.05;83.63
61488;BME280;47351;53.326;-6.298;2023-01-28T02:48:54;103011.48;;;4.06;84.02
61488;BME280;47351;53.326;-6.298;2023-01-28T02:51:48;103003.32;;;4.07;84.28
61488;BME280;47351;53.326;-6.298;2023-01-28T02:54:44;102996.20;;;4.08;84.64
61488;BME280;47351;53.326;-6.298;2023-01-28T02:57:40;102984.61;;;4.11;85.09
61488;BME280;47351;53.326;-6.298;2023-01-28T03:00:37;102977.63;;;4.13;85.38
61488;BME280;47351;53.326;-6.298;2023-01-28T03:03:31;102975.75;;;4.16;85.65
61488;BME280;47351;53.326;-6.298;2023-01-28T03:06:26;102967.36;;;4.18;85.79
61488;BME280;47351;53.326;-6.298;2023-01-28T03:09:18;102964.14;;;4.19;85.91
61488;BME280;47351;53.326;-6.298;2023-01-28T03:12:17;102969.21;;;4.21;86.10
61488;BME280;47351;53.326;-6.298;2023-01-28T03:15:26;102962.17;;;4.20;86.17
61488;BME280;47351;53.326;-6.298;2023-01-28T03:18:37;102951.65;;;4.17;86.16
61488;BME280;47351;53.326;-6.298;2023-01-28T03:21:46;102939.79;;;4.14;86.14
61488;BME280;47351;53.326;-6.298;2023-01-28T03:24:56;102937.46;;;4.10;86.22
61488;BME280;47351;53.326;-6.298;2023-01-28T03:28:06;102937.08;;;4.07;86.47
61488;BME280;47351;53.326;-6.298;2023-01-28T03:31:17;102934.09;;;4.06;86.76
61488;BME280;47351;53.326;-6.298;2023-01-28T03:34:27;102939.70;;;4.07;86.96
61488;BME280;47351;53.326;-6.298;2023-01-28T03:37:34;102947.70;;;4.11;87.22
61488;BME280;47351;53.326;-6.298;2023-01-28T03:40:35;102957.55;;;4.16;87.46
61488;BME280;47351;53.326;-6.298;2023-01-28T03:43:26;102973.05;;;4.22;87.62
61488;BME280;47351;53.326;-6.298;2023-01-28T03:46:17;102974.44;;;4.27;87.76
61488;BME280;47351;53.326;-6.298;2023-01-28T03:49:08;102970.16;;;4.32;87.83
61488;BME280;47351;53.326;-6.298;2023-01-28T03:51:58;102955.81;;;4.37;87.90
61488;BME280;47351;53.326;-6.298;2023-01-28T03:54:49;102940.80;;;4.41;87.90
61488;BME280;47351;53.326;-6.298;2023-01-28T03:57:41;102937.00;;;4.43;87.95
61488;BME280;47351;53.326;-6.298;2023-01-28T04:00:33;102945.17;;;4.46;88.04
61488;BME280;47351;53.326;-6.298;2023-01-28T04:03:30;102950.88;;;4.50;88.15
61488;BME280;47351;53.326;-6.298;2023-01-28T04:06:26;102953.04;;;4.53;88.22
61488;BME280;47351;53.326;-6.298;2023-01-28T04:09:17;102959.78;;;4.57;88.29
61488;BME280;47351;53.326;-6.298;2023-01-28T04:12:24;102960.92;;;4.59;88.25
61488;BME280;47351;53.326;-6.298;2023-01-28T04:15:15;102964.59;;;4.60;88.28
61488;BME280;47351;53.326;-6.298;2023-01-28T04:18:10;102968.09;;;4.61;88.29
61488;BME280;47351;53.326;-6.298;2023-01-28T04:21:02;102962.98;;;4.61;88.19
61488;BME280;47351;53.326;-6.298;2023-01-28T04:23:53;102958.39;;;4.60;88.27
61488;BME280;47351;53.326;-6.298;2023-01-28T04:26:44;102960.10;;;4.62;88.39
61488;BME280;47351;53.326;-6.298;2023-01-28T04:29:35;102957.17;;;4.64;88.53
61488;BME280;47351;53.326;-6.298;2023-01-28T04:32:48;102948.05;;;4.67;88.65
61488;BME280;47351;53.326;-6.298;2023-01-28T04:35:49;102944.39;;;4.70;88.88
61488;BME280;47351;53.326;-6.298;2023-01-28T04:38:54;102946.91;;;4.73;89.02
61488;BME280;47351;53.326;-6.298;2023-01-28T04:41:54;102945.40;;;4.75;89.24
61488;BME280;47351;53.326;-6.298;2023-01-28T04:44:58;102936.16;;;4.76;89.35
61488;BME280;47351;53.326;-6.298;2023-01-28T04:48:08;102941.88;;;4.75;89.45
61488;BME280;47351;53.326;-6.298;2023-01-28T04:51:28;102949.80;;;4.71;89.52
61488;BME280;47351;53.326;-6.298;2023-01-28T04:54:30;102954.45;;;4.66;89.61
61488;BME280;47351;53.326;-6.298;2023-01-28T04:57:24;102965.02;;;4.62;89.70
61488;BME280;47351;53.326;-6.298;2023-01-28T05:00:15;102972.18;;;4.60;89.77
61488;BME280;47351;53.326;-6.298;2023-01-28T05:03:06;102971.36;;;4.59;89.72
61488;BME280;47351;53.326;-6.298;2023-01-28T05:05:57;102970.90;;;4.57;89.71
61488;BME280;47351;53.326;-6.298;2023-01-28T05:08:57;102967.11;;;4.54;89.83
61488;BME280;47351;53.326;-6.298;2023-01-28T05:11:48;102971.09;;;4.52;89.97
61488;BME280;47351;53.326;-6.298;2023-01-28T05:14:39;102974.72;;;4.50;90.16
61488;BME280;47351;53.326;-6.298;2023-01-28T05:17:41;102982.93;;;4.49;90.32
61488;BME280;47351;53.326;-6.298;2023-01-28T05:20:33;102976.60;;;4.48;90.48
61488;BME280;47351;53.326;-6.298;2023-01-28T05:23:24;102977.95;;;4.49;90.59
61488;BME280;47351;53.326;-6.298;2023-01-28T05:26:20;102985.05;;;4.53;90.80
61488;BME280;47351;53.326;-6.298;2023-01-28T05:29:30;102983.98;;;4.58;90.90
61488;BME280;47351;53.326;-6.298;2023-01-28T05:32:21;102985.23;;;4.61;90.93
61488;BME280;47351;53.326;-6.298;2023-01-28T05:35:11;102988.85;;;4.64;90.89
61488;BME280;47351;53.326;-6.298;2023-01-28T05:38:03;102990.52;;;4.66;90.87
61488;BME280;47351;53.326;-6.298;2023-01-28T05:40:53;102990.63;;;4.68;90.94
61488;BME280;47351;53.326;-6.298;2023-01-28T05:43:44;102991.96;;;4.70;91.00
61488;BME280;47351;53.326;-6.298;2023-01-28T05:46:55;102997.53;;;4.72;90.89
61488;BME280;47351;53.326;-6.298;2023-01-28T05:50:05;102994.84;;;4.73;90.85
61488;BME280;47351;53.326;-6.298;2023-01-28T05:53:05;102991.92;;;4.75;90.84
61488;BME280;47351;53.326;-6.298;2023-01-28T05:55:57;102987.67;;;4.75;90.82
61488;BME280;47351;53.326;-6.298;2023-01-28T05:58:48;102980.63;;;4.74;90.88
61488;BME280;47351;53.326;-6.298;2023-01-28T06:01:39;102970.80;;;4.72;90.87
61488;BME280;47351;53.326;-6.298;2023-01-28T06:04:29;102967.89;;;4.70;90.92
61488;BME280;47351;53.326;-6.298;2023-01-28T06:07:20;102965.54;;;4.67;90.88
61488;BME280;47351;53.326;-6.298;2023-01-28T06:10:12;102967.96;;;4.64;90.98
61488;BME280;47351;53.326;-6.298;2023-01-28T06:13:05;102967.70;;;4.62;91.17
61488;BME280;47351;53.326;-6.298;2023-01-28T06:16:26;102968.11;;;4.60;91.44
61488;BME280;47351;53.326;-6.298;2023-01-28T06:19:24;102974.80;;;4.61;91.75
61488;BME280;47351;53.326;-6.298;2023-01-28T06:22:16;102969.94;;;4.63;91.97
61488;BME280;47351;53.326;-6.298;2023-01-28T06:25:08;102965.37;;;4.67;92.18
61488;BME280;47351;53.326;-6.298;2023-01-28T06:27:59;102959.08;;;4.69;92.23
61488;BME280;47351;53.326;-6.298;2023-01-28T06:30:49;102954.76;;;4.71;92.40
61488;BME280;47351;53.326;-6.298;2023-01-28T06:33:40;102957.87;;;4.73;92.65
61488;BME280;47351;53.326;-6.298;2023-01-28T06:36:30;102957.94;;;4.75;92.75
61488;BME280;47351;53.326;-6.298;2023-01-28T06:39:21;102958.91;;;4.77;92.80
61488;BME280;47351;53.326;-6.298;2023-01-28T06:42:12;102958.02;;;4.78;92.75
61488;BME280;47351;53.326;-6.298;2023-01-28T06:45:03;102959.02;;;4.75;92.73
61488;BME280;47351;53.326;-6.298;2023-01-28T06:47:53;102963.80;;;4.71;92.68
61488;BME280;47351;53.326;-6.298;2023-01-28T06:50:44;102960.30;;;4.65;92.81
61488;BME280;47351;53.326;-6.298;2023-01-28T06:53:35;102966.89;;;4.60;92.89
61488;BME280;47351;53.326;-6.298;2023-01-28T06:56:26;102969.91;;;4.55;92.95
61488;BME280;47351;53.326;-6.298;2023-01-28T06:59:16;102963.94;;;4.50;93.03
61488;BME280;47351;53.326;-6.298;2023-01-28T07:02:08;102962.84;;;4.47;93.08
61488;BME280;47351;53.326;-6.298;2023-01-28T07:04:58;102961.38;;;4.44;93.11
61488;BME280;47351;53.326;-6.298;2023-01-28T07:07:50;102955.63;;;4.42;93.15
61488;BME280;47351;53.326;-6.298;2023-01-28T07:10:41;102955.86;;;4.40;93.18
61488;BME280;47351;53.326;-6.298;2023-01-28T07:13:32;102958.91;;;4.39;93.22
61488;BME280;47351;53.326;-6.298;2023-01-28T07:16:22;102955.77;;;4.38;93.25
61488;BME280;47351;53.326;-6.298;2023-01-28T07:19:13;102953.45;;;4.39;93.21
61488;BME280;47351;53.326;-6.298;2023-01-28T07:22:04;102956.41;;;4.40;93.32
61488;BME280;47351;53.326;-6.298;2023-01-28T07:24:55;102955.46;;;4.41;93.44
61488;BME280;47351;53.326;-6.298;2023-01-28T07:27:48;102953.31;;;4.42;93.65
61488;BME280;47351;53.326;-6.298;2023-01-28T07:30:38;102953.88;;;4.46;93.85
61488;BME280;47351;53.326;-6.298;2023-01-28T07:33:29;102958.86;;;4.49;94.03
61488;BME280;47351;53.326;-6.298;2023-01-28T07:36:19;102963.55;;;4.55;94.37
61488;BME280;47351;53.326;-6.298;2023-01-28T07:39:09;102962.48;;;4.64;94.55
61488;BME280;47351;53.326;-6.298;2023-01-28T07:42:00;102960.53;;;4.72;94.59
61488;BME280;47351;53.326;-6.298;2023-01-28T07:44:56;102959.83;;;4.81;94.56
61488;BME280;47351;53.326;-6.298;2023-01-28T07:47:53;102951.70;;;4.88;94.46
61488;BME280;47351;53.326;-6.298;2023-01-28T07:50:43;102947.23;;;4.94;94.39
61488;BME280;47351;53.326;-6.298;2023-01-28T07:53:36;102943.27;;;4.95;94.14
61488;BME280;47351;53.326;-6.298;2023-01-28T07:56:27;102940.89;;;4.93;93.82
61488;BME280;47351;53.326;-6.298;2023-01-28T07:59:19;102947.37;;;4.91;93.84
61488;BME280;47351;53.326;-6.298;2023-01-28T08:02:10;102951.41;;;4.87;93.77
61488;BME280;47351;53.326;-6.298;2023-01-28T08:05:02;102955.50;;;4.82;93.69
61488;BME280;47351;53.326;-6.298;2023-01-28T08:07:53;102960.10;;;4.78;93.73
61488;BME280;47351;53.326;-6.298;2023-01-28T08:10:44;102962.13;;;4.76;93.79
61488;BME280;47351;53.326;-6.298;2023-01-28T08:13:34;102968.58;;;4.75;93.94
61488;BME280;47351;53.326;-6.298;2023-01-28T08:16:25;102975.52;;;4.74;94.02
61488;BME280;47351;53.326;-6.298;2023-01-28T08:19:17;102977.67;;;4.73;94.15
61488;BME280;47351;53.326;-6.298;2023-01-28T08:22:09;102978.84;;;4.75;94.36
61488;BME280;47351;53.326;-6.298;2023-01-28T08:25:00;102985.46;;;4.77;94.47
61488;BME280;47351;53.326;-6.298;2023-01-28T08:27:51;102988.13;;;4.81;94.56
61488;BME280;47351;53.326;-6.298;2023-01-28T08:30:42;102987.52;;;4.87;94.56
61488;BME280;47351;53.326;-6.298;2023-01-28T08:33:32;102984.80;;;4.93;94.54
61488;BME280;47351;53.326;-6.298;2023-01-28T08:36:23;102986.70;;;4.98;94.36
61488;BME280;47351;53.326;-6.298;2023-01-28T08:39:13;102992.15;;;5.03;94.20
61488;BME280;47351;53.326;-6.298;2023-01-28T08:42:05;102994.98;;;5.07;93.91
61488;BME280;47351;53.326;-6.298;2023-01-28T08:44:56;102997.67;;;5.10;93.72
61488;BME280;47351;53.326;-6.298;2023-01-28T08:47:49;102997.02;;;5.13;93.69
61488;BME280;47351;53.326;-6.298;2023-01-28T08:50:43;102996.67;;;5.17;93.71
61488;BME280;47351;53.326;-6.298;2023-01-28T08:53:36;102993.80;;;5.22;93.73
61488;BME280;47351;53.326;-6.298;2023-01-28T08:56:27;102994.92;;;5.29;93.84
61488;BME280;47351;53.326;-6.298;2023-01-28T08:59:19;102990.03;;;5.35;93.96
61488;BME280;47351;53.326;-6.298;2023-01-28T09:02:10;102992.20;;;5.42;93.96
61488;BME280;47351;53.326;-6.298;2023-01-28T09:05:19;102996.08;;;5.50;93.99
61488;BME280;47351;53.326;-6.298;2023-01-28T09:08:11;102993.42;;;5.58;93.91
61488;BME280;47351;53.326;-6.298;2023-01-28T09:11:02;102997.38;;;5.65;93.77
61488;BME280;47351;53.326;-6.298;2023-01-28T09:13:53;102998.13;;;5.71;93.61
61488;BME280;47351;53.326;-6.298;2023-01-28T09:16:43;102994.08;;;5.78;93.52
61488;BME280;47351;53.326;-6.298;2023-01-28T09:19:35;102996.58;;;5.86;93.49
61488;BME280;47351;53.326;-6.298;2023-01-28T09:22:25;103003.11;;;5.94;93.24
61488;BME280;47351;53.326;-6.298;2023-01-28T09:25:16;103001.09;;;6.04;92.84
61488;BME280;47351;53.326;-6.298;2023-01-28T09:28:06;103001.11;;;6.15;92.62
61488;BME280;47351;53.326;-6.298;2023-01-28T09:31:01;102998.30;;;6.25;92.41
61488;BME280;47351;53.326;-6.298;2023-01-28T09:33:51;102997.54;;;6.37;92.27
61488;BME280;47351;53.326;-6.298;2023-01-28T09:36:46;102999.25;;;6.49;92.10
61488;BME280;47351;53.326;-6.298;2023-01-28T09:39:36;102996.87;;;6.58;91.71
61488;BME280;47351;53.326;-6.298;2023-01-28T09:42:30;102996.50;;;6.65;91.54
61488;BME280;47351;53.326;-6.298;2023-01-28T09:45:29;102994.05;;;6.72;91.47
61488;BME280;47351;53.326;-6.298;2023-01-28T09:48:41;102999.55;;;6.79;91.47
61488;BME280;47351;53.326;-6.298;2023-01-28T09:51:33;103002.16;;;6.84;91.27
61488;BME280;47351;53.326;-6.298;2023-01-28T09:54:28;103003.06;;;6.87;91.25
61488;BME280;47351;53.326;-6.298;2023-01-28T09:57:20;103001.76;;;6.91;91.31
61488;BME280;47351;53.326;-6.298;2023-01-28T10:00:15;103001.90;;;6.95;91.06
61488;BME280;47351;53.326;-6.298;2023-01-28T10:03:11;103001.79;;;6.98;90.70
61488;BME280;47351;53.326;-6.298;2023-01-28T10:06:05;103006.85;;;7.00;90.50
61488;BME280;47351;53.326;-6.298;2023-01-28T10:09:09;103010.37;;;7.04;90.41
61488;BME280;47351;53.326;-6.298;2023-01-28T10:12:07;103019.01;;;7.05;90.44
61488;BME280;47351;53.326;-6.298;2023-01-28T10:18:14;103028.02;;;6.95;90.60
61488;BME280;47351;53.326;-6.298;2023-01-28T10:21:07;103029.92;;;6.92;90.88
61488;BME280;47351;53.326;-6.298;2023-01-28T10:24:16;103041.59;;;6.93;91.23
61488;BME280;47351;53.326;-6.298;2023-01-28T10:27:10;103038.77;;;6.97;91.37
61488;BME280;47351;53.326;-6.298;2023-01-28T10:30:09;103042.67;;;7.04;91.78
61488;BME280;47351;53.326;-6.298;2023-01-28T10:33:09;103041.05;;;7.11;91.81
61488;BME280;47351;53.326;-6.298;2023-01-28T10:36:05;103040.57;;;7.24;91.80
61488;BME280;47351;53.326;-6.298;2023-01-28T10:38:56;103041.57;;;7.39;92.04
61488;BME280;47351;53.326;-6.298;2023-01-28T10:41:47;103047.46;;;7.55;92.21
61488;BME280;47351;53.326;-6.298;2023-01-28T10:44:46;103055.56;;;7.67;92.30
61488;BME280;47351;53.326;-6.298;2023-01-28T10:47:38;103057.08;;;7.75;92.25
61488;BME280;47351;53.326;-6.298;2023-01-28T10:50:30;103051.46;;;7.80;91.72
61488;BME280;47351;53.326;-6.298;2023-01-28T10:53:32;103046.13;;;7.83;91.48
61488;BME280;47351;53.326;-6.298;2023-01-28T10:56:24;103041.80;;;7.84;91.27
61488;BME280;47351;53.326;-6.298;2023-01-28T10:59:21;103043.95;;;7.84;90.92
61488;BME280;47351;53.326;-6.298;2023-01-28T11:02:24;103042.48;;;7.82;90.67
61488;BME280;47351;53.326;-6.298;2023-01-28T11:05:16;103037.35;;;7.84;90.65
61488;BME280;47351;53.326;-6.298;2023-01-28T11:08:11;103033.58;;;7.88;90.69
61488;BME280;47351;53.326;-6.298;2023-01-28T11:11:02;103025.88;;;7.96;90.57
61488;BME280;47351;53.326;-6.298;2023-01-28T11:14:03;103017.58;;;8.08;90.30
61488;BME280;47351;53.326;-6.298;2023-01-28T11:16:53;103012.14;;;8.25;90.05
61488;BME280;47351;53.326;-6.298;2023-01-28T11:19:45;103008.41;;;8.45;89.86
61488;BME280;47351;53.326;-6.298;2023-01-28T11:22:37;102998.33;;;8.68;89.57
61488;BME280;47351;53.326;-6.298;2023-01-28T11:25:29;102986.27;;;9.12;89.44
61488;BME280;47351;53.326;-6.298;2023-01-28T11:28:20;102982.86;;;9.62;88.68
61488;BME280;47351;53.326;-6.298;2023-01-28T11:31:13;102975.96;;;10.00;87.96
61488;BME280;47351;53.326;-6.298;2023-01-28T11:34:04;102971.61;;;10.24;87.29
61488;BME280;47351;53.326;-6.298;2023-01-28T11:37:00;102968.55;;;10.35;86.91
61488;BME280;47351;53.326;-6.298;2023-01-28T11:40:13;102962.24;;;10.36;87.05
61488;BME280;47351;53.326;-6.298;2023-01-28T11:43:09;102956.63;;;10.42;87.28
61488;BME280;47351;53.326;-6.298;2023-01-28T11:46:02;102959.55;;;10.50;87.12
61488;BME280;47351;53.326;-6.298;2023-01-28T11:49:00;102964.19;;;10.47;86.44
61488;BME280;47351;53.326;-6.298;2023-01-28T11:51:56;102967.08;;;10.38;86.00
61488;BME280;47351;53.326;-6.298;2023-01-28T11:54:54;102972.90;;;10.26;85.81
61488;BME280;47351;53.326;-6.298;2023-01-28T11:57:49;102974.18;;;10.00;85.39
61488;BME280;47351;53.326;-6.298;2023-01-28T12:00:42;102971.35;;;9.69;85.60
61488;BME280;47351;53.326;-6.298;2023-01-28T12:03:50;102968.85;;;9.41;85.90
61488;BME280;47351;53.326;-6.298;2023-01-28T12:06:56;102968.29;;;9.18;86.25
61488;BME280;47351;53.326;-6.298;2023-01-28T12:09:52;102965.96;;;9.07;86.60
61488;BME280;47351;53.326;-6.298;2023-01-28T12:12:49;102967.75;;;8.97;86.85
61488;BME280;47351;53.326;-6.298;2023-01-28T12:15:50;102967.23;;;8.82;86.87
61488;BME280;47351;53.326;-6.298;2023-01-28T12:19:06;102964.54;;;8.71;87.28
61488;BME280;47351;53.326;-6.298;2023-01-28T12:22:02;102963.36;;;8.60;87.55
61488;BME280;47351;53.326;-6.298;2023-01-28T12:25:06;102966.16;;;8.55;88.11
61488;BME280;47351;53.326;-6.298;2023-01-28T12:28:06;102964.09;;;8.51;88.10
61488;BME280;47351;53.326;-6.298;2023-01-28T12:31:02;102954.95;;;8.46;88.36
61488;BME280;47351;53.326;-6.298;2023-01-28T12:34:00;102952.89;;;8.48;88.35
61488;BME280;47351;53.326;-6.298;2023-01-28T12:36:55;102949.30;;;8.51;88.21
61488;BME280;47351;53.326;-6.298;2023-01-28T12:39:54;102940.48;;;8.53;88.21
61488;BME280;47351;53.326;-6.298;2023-01-28T12:42:50;102931.62;;;8.49;88.21
61488;BME280;47351;53.326;-6.298;2023-01-28T12:45:43;102925.96;;;8.49;88.30
61488;BME280;47351;53.326;-6.298;2023-01-28T12:48:36;102926.59;;;8.44;88.54
61488;BME280;47351;53.326;-6.298;2023-01-28T12:51:29;102923.42;;;8.44;88.81
61488;BME280;47351;53.326;-6.298;2023-01-28T12:54:24;102922.05;;;8.49;88.88
61488;BME280;47351;53.326;-6.298;2023-01-28T12:57:18;102918.63;;;8.65;88.68
61488;BME280;47351;53.326;-6.298;2023-01-28T13:00:14;102914.05;;;9.02;88.24
61488;BME280;47351;53.326;-6.298;2023-01-28T13:03:10;102909.13;;;9.52;87.49
61488;BME280;47351;53.326;-6.298;2023-01-28T13:06:05;102908.17;;;9.84;86.89
61488;BME280;47351;53.326;-6.298;2023-01-28T13:08:59;102907.39;;;10.02;86.40
61488;BME280;47351;53.326;-6.298;2023-01-28T13:11:53;102905.33;;;9.97;85.97
61488;BME280;47351;53.326;-6.298;2023-01-28T13:14:46;102903.97;;;9.83;86.28
61488;BME280;47351;53.326;-6.298;2023-01-28T13:17:37;102898.20;;;9.89;86.05
61488;BME280;47351;53.326;-6.298;2023-01-28T13:20:30;102898.34;;;9.98;85.47
61488;BME280;47351;53.326;-6.298;2023-01-28T13:23:27;102900.40;;;9.83;85.05
61488;BME280;47351;53.326;-6.298;2023-01-28T13:26:30;102899.58;;;9.79;84.77
61488;BME280;47351;53.326;-6.298;2023-01-28T13:29:29;102895.91;;;9.99;84.22
61488;BME280;47351;53.326;-6.298;2023-01-28T13:32:29;102888.83;;;10.10;84.12
61488;BME280;47351;53.326;-6.298;2023-01-28T13:35:26;102890.44;;;10.15;84.06
61488;BME280;47351;53.326;-6.298;2023-01-28T13:38:19;102889.84;;;10.16;84.12
61488;BME280;47351;53.326;-6.298;2023-01-28T13:41:10;102884.18;;;10.04;84.39
61488;BME280;47351;53.326;-6.298;2023-01-28T13:44:00;102884.70;;;9.77;84.11
61488;BME280;47351;53.326;-6.298;2023-01-28T13:46:52;102882.84;;;9.45;84.12
61488;BME280;47351;53.326;-6.298;2023-01-28T13:49:43;102883.21;;;9.16;84.46
61488;BME280;47351;53.326;-6.298;2023-01-28T13:52:35;102885.30;;;8.97;85.25
61488;BME280;47351;53.326;-6.298;2023-01-28T13:55:28;102884.27;;;8.82;85.64
61488;BME280;47351;53.326;-6.298;2023-01-28T13:58:52;102876.45;;;8.64;85.85
61488;BME280;47351;53.326;-6.298;2023-01-28T14:01:54;102871.08;;;8.47;86.06
61488;BME280;47351;53.326;-6.298;2023-01-28T14:04:52;102864.54;;;8.34;86.62
61488;BME280;47351;53.326;-6.298;2023-01-28T14:11:02;102849.91;;;8.16;87.39
61488;BME280;47351;53.326;-6.298;2023-01-28T14:14:00;102848.52;;;8.10;87.58
61488;BME280;47351;53.326;-6.298;2023-01-28T14:16:57;102846.36;;;8.04;87.88
61488;BME280;47351;53.326;-6.298;2023-01-28T14:19:49;102846.51;;;8.04;88.23
61488;BME280;47351;53.326;-6.298;2023-01-28T14:22:42;102841.52;;;8.07;88.59
61488;BME280;47351;53.326;-6.298;2023-01-28T14:25:34;102849.06;;;8.12;89.00
61488;BME280;47351;53.326;-6.298;2023-01-28T14:28:32;102849.95;;;8.16;88.99
61488;BME280;47351;53.326;-6.298;2023-01-28T14:31:25;102845.13;;;8.19;89.14
61488;BME280;47351;53.326;-6.298;2023-01-28T14:34:18;102844.54;;;8.26;89.21
61488;BME280;47351;53.326;-6.298;2023-01-28T14:37:12;102848.70;;;8.34;89.31
61488;BME280;47351;53.326;-6.298;2023-01-28T14:40:05;102851.17;;;8.44;89.11
61488;BME280;47351;53.326;-6.298;2023-01-28T14:42:56;102847.52;;;8.48;88.86
61488;BME280;47351;53.326;-6.298;2023-01-28T14:45:56;102849.73;;;8.47;89.01
61488;BME280;47351;53.326;-6.298;2023-01-28T14:48:54;102852.32;;;8.42;88.98
61488;BME280;47351;53.326;-6.298;2023-01-28T14:52:03;102859.30;;;8.39;89.04
61488;BME280;47351;53.326;-6.298;2023-01-28T14:55:00;102865.96;;;8.34;89.08
61488;BME280;47351;53.326;-6.298;2023-01-28T14:57:57;102869.97;;;8.23;88.76
61488;BME280;47351;53.326;-6.298;2023-01-28T15:00:55;102866.11;;;8.16;88.97
61488;BME280;47351;53.326;-6.298;2023-01-28T15:03:47;102866.79;;;8.13;89.08
61488;BME280;47351;53.326;-6.298;2023-01-28T15:06:37;102869.96;;;8.11;89.07
61488;BME280;47351;53.326;-6.298;2023-01-28T15:09:28;102871.81;;;8.07;88.97
61488;BME280;47351;53.326;-6.298;2023-01-28T15:12:18;102876.03;;;8.04;89.09
61488;BME280;47351;53.326;-6.298;2023-01-28T15:15:10;102886.65;;;8.02;89.10
61488;BME280;47351;53.326;-6.298;2023-01-28T15:18:02;102886.77;;;8.00;89.18
61488;BME280;47351;53.326;-6.298;2023-01-28T15:20:54;102884.52;;;7.99;89.28
61488;BME280;47351;53.326;-6.298;2023-01-28T15:23:46;102889.32;;;7.96;89.17